Petitcodiac, Canada
Current Conditions -  °F | °C
As of 1:00 PM on Monday 22 Dec 2014 (Local Time) from CYQM Reporting Station
Overcast Overcast  
Wind Chill: 28°   Ceiling: 1400
Heat Index: 28°   Visibility: 15mi
Dew Point: 21°   Wind: 3mph
Humidity: 74%   Direction: 10°N
Pressure: 30.44"   Gusts: NA
Location:  45.93°N, 65.17°W
Report Text: CYQM 221700Z 01003KT 15SM BKN014 OVC027 M02/M06 A3044 RMK SC5SC3 SLP313
Loading
Personal Weather Stations






























Interactive Weather Map New forecast layout! Learn more

10-Day Weather Forecast

Advertisements
Track Severe Weather on mobile